createdAt,value
2022-11-16T00:00:21.338Z,79.22
2022-11-16T00:03:23.704Z,71.90
2022-11-16T00:06:26.606Z,69.35
2022-11-16T00:09:31.909Z,74.20
2022-11-16T00:12:34.053Z,66.78
2022-11-16T00:15:36.572Z,74.47
2022-11-16T00:18:38.640Z,66.10
2022-11-16T00:21:41.631Z,74.47
2022-11-16T00:24:43.705Z,77.45
2022-11-16T00:27:46.053Z,73.03
2022-11-16T00:30:57.160Z,72.90
2022-11-16T00:33:59.738Z,77.45
2022-11-16T00:37:02.711Z,81.95
2022-11-16T00:40:05.678Z,73.60
2022-11-16T00:43:07.977Z,77.15
2022-11-16T00:46:10.611Z,79.20
2022-11-16T00:49:12.794Z,75.65
2022-11-16T00:52:15.157Z,75.50
2022-11-16T00:55:17.230Z,78.45
2022-11-16T00:58:19.576Z,75.37
2022-11-16T01:01:23.858Z,69.45
2022-11-16T01:04:26.361Z,77.75
2022-11-16T01:07:28.528Z,74.70
2022-11-16T01:10:30.908Z,74.20
2022-11-16T01:13:33.206Z,70.53
2022-11-16T01:16:36.031Z,69.72
2022-11-16T01:19:38.740Z,71.40
2022-11-16T01:22:41.481Z,77.65
2022-11-16T01:25:43.697Z,74.87
2022-11-16T01:28:46.111Z,79.07
2022-11-16T01:31:48.522Z,78.22
2022-11-16T01:34:51.303Z,71.60
2022-11-16T01:37:54.331Z,77.07
2022-11-16T01:40:57.052Z,70.95
2022-11-16T01:44:02.797Z,74.85
2022-11-16T01:47:16.463Z,79.50
2022-11-16T01:50:20.698Z,76.35
2022-11-16T01:53:24.879Z,78.62
2022-11-16T01:56:27.795Z,77.43
2022-11-16T01:59:32.799Z,74.55
2022-11-16T02:02:35.198Z,71.28
2022-11-16T02:05:52.780Z,72.28
2022-11-16T02:09:49.773Z,70.85
2022-11-16T02:13:02.644Z,65.20
2022-11-16T02:16:39.063Z,68.87
2022-11-16T02:19:59.941Z,67.75
2022-11-16T02:23:04.862Z,67.15
2022-11-16T02:26:38.672Z,70.05
2022-11-16T02:29:45.495Z,65.35
2022-11-16T02:33:01.740Z,67.80
2022-11-16T02:36:07.627Z,76.15
2022-11-16T02:39:16.389Z,66.25
2022-11-16T02:42:26.322Z,71.03
2022-11-16T02:45:32.317Z,67.55
2022-11-16T02:48:39.050Z,65.22
2022-11-16T02:51:42.838Z,62.83
2022-11-16T02:54:45.261Z,62.78
2022-11-16T02:58:09.573Z,62.83
2022-11-16T03:01:19.018Z,63.15
2022-11-16T03:04:36.220Z,61.50
2022-11-16T03:07:46.279Z,59.55
2022-11-16T03:11:20.254Z,57.83
2022-11-16T03:14:29.344Z,57.33
2022-11-16T03:17:42.105Z,59.75
2022-11-16T03:20:48.079Z,54.78
2022-11-16T03:23:50.683Z,55.20
2022-11-16T03:27:02.277Z,57.13
2022-11-16T03:30:14.495Z,55.05
2022-11-16T03:33:38.762Z,54.58
2022-11-16T03:36:44.782Z,52.20
2022-11-16T03:39:48.723Z,55.47
2022-11-16T03:42:52.095Z,59.88
2022-11-16T03:45:55.238Z,60.75
2022-11-16T03:48:59.514Z,63.30
2022-11-16T03:52:02.261Z,64.85
2022-11-16T03:55:05.576Z,61.28
2022-11-16T03:58:09.153Z,65.25
2022-11-16T04:01:11.546Z,64.55
2022-11-16T04:04:35.101Z,63.78
2022-11-16T04:07:57.461Z,61.83
2022-11-16T04:11:20.282Z,58.87
2022-11-16T04:14:42.896Z,68.20
2022-11-16T04:18:04.275Z,60.45
2022-11-16T04:21:36.733Z,59.05
2022-11-16T04:24:44.075Z,69.35
2022-11-16T04:28:05.073Z,71.62
2022-11-16T04:31:26.077Z,74.45
2022-11-16T04:34:48.794Z,74.47
2022-11-16T04:37:53.277Z,74.68
2022-11-16T04:40:55.656Z,67.18
2022-11-16T04:43:58.857Z,71.47
2022-11-16T04:47:06.830Z,70.60
2022-11-16T04:50:09.829Z,72.50
2022-11-16T04:53:13.659Z,68.18
2022-11-16T04:56:18.219Z,75.93
2022-11-16T04:59:21.298Z,76.18
2022-11-16T05:02:23.669Z,78.35
2022-11-16T05:05:26.130Z,75.00
2022-11-16T05:08:28.726Z,75.45
2022-11-16T05:11:31.021Z,80.95
2022-11-16T05:14:33.961Z,77.95
2022-11-16T05:17:36.329Z,74.32
2022-11-16T05:20:58.148Z,80.82
2022-11-16T05:27:23.011Z,81.00
2022-11-16T05:30:25.425Z,87.32
2022-11-16T05:33:27.823Z,77.12
2022-11-16T05:36:29.913Z,84.45
2022-11-16T05:39:32.303Z,97.93
2022-11-16T05:42:34.684Z,86.63
2022-11-16T05:45:37.478Z,85.40
2022-11-16T05:48:41.626Z,81.53
2022-11-16T05:51:45.831Z,79.95
2022-11-16T05:54:48.409Z,83.30
2022-11-16T05:57:51.133Z,81.25
2022-11-16T06:00:53.293Z,81.40
2022-11-16T06:03:56.022Z,90.95
2022-11-16T06:06:58.776Z,86.72
2022-11-16T06:10:03.188Z,95.12
2022-11-16T06:13:06.672Z,85.15
2022-11-16T06:16:09.509Z,89.13
2022-11-16T06:19:11.690Z,85.03
2022-11-16T06:22:14.095Z,91.97
2022-11-16T06:25:16.207Z,88.50
2022-11-16T06:28:18.780Z,99.00
2022-11-16T06:31:21.204Z,97.43
2022-11-16T06:34:24.639Z,89.40
2022-11-16T06:37:27.011Z,104.45
2022-11-16T06:40:29.408Z,94.80
2022-11-16T06:43:31.872Z,85.47
2022-11-16T06:46:35.384Z,83.22
2022-11-16T06:49:38.010Z,95.78
2022-11-16T06:52:41.336Z,88.45
2022-11-16T06:55:43.630Z,87.70
2022-11-16T06:58:46.163Z,103.68
2022-11-16T07:01:49.068Z,103.95
2022-11-16T07:04:52.029Z,98.90
2022-11-16T07:07:55.325Z,95.65
2022-11-16T07:11:04.266Z,94.28
2022-11-16T07:14:08.371Z,91.97
2022-11-16T07:17:11.515Z,98.93
2022-11-16T07:20:15.067Z,95.50
2022-11-16T07:23:19.844Z,99.72
2022-11-16T07:26:22.751Z,89.37
2022-11-16T07:29:26.355Z,90.00
2022-11-16T07:32:35.544Z,106.65
2022-11-16T07:35:38.288Z,95.05
2022-11-16T07:38:40.572Z,92.78
2022-11-16T07:41:44.210Z,93.68
2022-11-16T07:44:47.233Z,90.75
2022-11-16T07:47:52.335Z,89.78
2022-11-16T07:51:03.305Z,91.72
2022-11-16T07:54:06.649Z,100.80
2022-11-16T07:57:08.853Z,96.87
2022-11-16T08:00:11.757Z,98.68
2022-11-16T08:03:19.234Z,98.05
2022-11-16T08:06:28.218Z,94.18
2022-11-16T08:09:30.742Z,93.95
2022-11-16T08:12:33.458Z,98.85
2022-11-16T08:15:35.545Z,90.85
2022-11-16T08:18:39.872Z,96.75
2022-11-16T08:21:42.348Z,91.10
2022-11-16T08:24:44.898Z,95.38
2022-11-16T08:27:47.765Z,97.05
2022-11-16T08:30:53.981Z,97.32
2022-11-16T08:33:56.808Z,94.90
2022-11-16T08:36:59.400Z,90.60
2022-11-16T08:40:03.621Z,87.47
2022-11-16T08:43:08.268Z,90.62
2022-11-16T08:46:11.102Z,91.43
2022-11-16T08:49:13.829Z,96.95
2022-11-16T08:52:16.017Z,87.03
2022-11-16T08:55:18.863Z,88.37
2022-11-16T08:58:22.637Z,82.85
2022-11-16T09:01:30.361Z,92.55
2022-11-16T09:04:36.843Z,88.53
2022-11-16T09:07:40.104Z,80.40
2022-11-16T09:10:42.227Z,86.47
2022-11-16T09:13:46.914Z,84.72
2022-11-16T09:16:49.057Z,82.82
2022-11-16T09:19:51.425Z,86.10
2022-11-16T09:22:53.518Z,82.30
2022-11-16T09:25:56.069Z,82.43
2022-11-16T09:29:00.176Z,87.65
2022-11-16T09:32:02.948Z,76.18
2022-11-16T09:35:05.334Z,81.68
2022-11-16T09:38:09.864Z,79.25
2022-11-16T09:41:15.033Z,74.22
2022-11-16T09:44:31.699Z,77.53
2022-11-16T09:47:36.698Z,80.50
2022-11-16T09:50:45.673Z,74.68
2022-11-16T09:53:58.349Z,82.68
2022-11-16T09:57:12.052Z,76.20
2022-11-16T10:00:23.662Z,155.52
2022-11-16T10:03:28.730Z,163.70
2022-11-16T10:07:02.764Z,101.28
2022-11-16T10:10:06.139Z,76.00
2022-11-16T10:13:31.592Z,79.65
2022-11-16T10:16:48.522Z,81.78
2022-11-16T10:20:07.357Z,82.53
2022-11-16T10:23:31.801Z,80.85
2022-11-16T10:26:56.160Z,73.65
2022-11-16T10:30:07.675Z,79.00
2022-11-16T10:33:22.007Z,71.00
2022-11-16T10:36:30.190Z,75.87
2022-11-16T10:39:34.122Z,67.75
2022-11-16T10:42:40.924Z,76.15
2022-11-16T10:46:00.815Z,74.97
2022-11-16T10:49:21.520Z,72.47
2022-11-16T10:52:24.119Z,78.90
2022-11-16T10:55:28.659Z,77.40
2022-11-16T10:58:50.004Z,75.57
2022-11-16T11:01:57.432Z,69.50
2022-11-16T11:05:20.266Z,70.18
2022-11-16T11:08:30.449Z,70.60
2022-11-16T11:11:51.278Z,70.43
2022-11-16T11:18:23.277Z,68.95
2022-11-16T11:21:27.526Z,69.47
2022-11-16T11:24:44.032Z,62.25
2022-11-16T11:27:47.370Z,63.78
2022-11-16T11:31:07.096Z,69.68
2022-11-16T11:34:09.384Z,67.28
2022-11-16T11:37:27.532Z,64.68
2022-11-16T11:40:30.961Z,71.40
2022-11-16T11:43:37.191Z,68.25
2022-11-16T11:47:35.281Z,67.05
2022-11-16T11:50:33.481Z,68.55
2022-11-16T11:53:59.241Z,65.15
2022-11-16T11:57:04.353Z,67.80
2022-11-16T12:00:07.670Z,64.37
2022-11-16T12:03:41.675Z,63.47
2022-11-16T12:06:54.074Z,62.45
2022-11-16T12:10:27.390Z,61.80
2022-11-16T12:14:08.720Z,62.45
2022-11-16T12:17:24.967Z,60.67
2022-11-16T12:21:00.789Z,56.00
2022-11-16T12:24:30.438Z,60.78
2022-11-16T12:28:03.949Z,59.60
2022-11-16T12:31:24.352Z,60.25
2022-11-16T12:34:52.500Z,55.08
2022-11-16T12:37:59.574Z,53.10
2022-11-16T12:41:49.977Z,54.55
2022-11-16T12:45:10.184Z,56.08
2022-11-16T12:48:33.384Z,53.30
2022-11-16T12:51:51.990Z,53.17
2022-11-16T12:55:28.478Z,53.78
2022-11-16T12:59:19.977Z,47.30
2022-11-16T13:02:47.138Z,47.60
2022-11-16T13:06:06.646Z,47.55
2022-11-16T13:09:30.025Z,45.78
2022-11-16T13:12:35.267Z,48.30
2022-11-16T13:15:40.695Z,48.30
2022-11-16T13:18:44.140Z,49.97
2022-11-16T13:22:11.512Z,48.58
2022-11-16T13:25:40.400Z,45.70
2022-11-16T13:29:22.090Z,50.78
2022-11-16T13:32:34.861Z,45.88
2022-11-16T13:35:38.589Z,47.20
2022-11-16T13:38:53.708Z,49.40
2022-11-16T13:42:11.398Z,41.80
2022-11-16T13:45:22.077Z,46.50
2022-11-16T13:51:29.517Z,45.35
2022-11-16T13:54:50.475Z,42.25
2022-11-16T13:57:55.611Z,39.42
2022-11-16T14:01:02.475Z,39.30
2022-11-16T14:04:34.770Z,36.83
2022-11-16T14:07:47.093Z,39.13
2022-11-16T14:10:52.016Z,36.90
2022-11-16T14:13:54.799Z,35.08
2022-11-16T14:16:57.154Z,36.88
2022-11-16T14:19:59.325Z,33.45
2022-11-16T14:23:09.085Z,34.60
2022-11-16T14:26:26.446Z,34.53
2022-11-16T14:29:47.669Z,29.52
2022-11-16T14:32:52.643Z,31.17
2022-11-16T14:35:55.682Z,29.70
2022-11-16T14:39:23.040Z,29.00
2022-11-16T14:42:38.207Z,27.08
2022-11-16T14:46:04.586Z,25.40
2022-11-16T14:49:13.743Z,24.23
2022-11-16T14:52:20.557Z,23.87
2022-11-16T14:55:25.677Z,22.85
2022-11-16T14:58:28.749Z,23.75
2022-11-16T15:01:38.887Z,22.20
2022-11-16T15:04:41.051Z,20.33
2022-11-16T15:07:45.099Z,21.90
2022-11-16T15:10:52.322Z,24.30
2022-11-16T15:13:55.480Z,26.10
2022-11-16T15:16:59.916Z,24.98
2022-11-16T15:20:14.117Z,23.98
2022-11-16T15:23:17.310Z,24.95
2022-11-16T15:26:23.877Z,26.65
2022-11-16T15:29:26.086Z,27.48
2022-11-16T15:32:28.778Z,27.58
2022-11-16T15:35:36.274Z,32.60
2022-11-16T15:38:38.776Z,34.22
2022-11-16T15:41:41.859Z,29.23
2022-11-16T15:44:44.828Z,30.30
2022-11-16T15:47:47.368Z,30.48
2022-11-16T15:51:15.887Z,29.50
2022-11-16T15:54:29.786Z,27.77
2022-11-16T15:57:32.146Z,29.95
2022-11-16T16:00:36.819Z,29.30
2022-11-16T16:03:44.842Z,29.50
2022-11-16T16:06:48.702Z,29.67
2022-11-16T16:10:12.319Z,29.00
2022-11-16T16:13:29.946Z,29.00
2022-11-16T16:16:37.649Z,30.27
2022-11-16T16:19:44.032Z,28.92
2022-11-16T16:22:46.574Z,29.90
2022-11-16T16:25:50.683Z,27.02
2022-11-16T16:28:53.297Z,28.38
2022-11-16T16:31:56.141Z,28.15
2022-11-16T16:35:07.352Z,27.83
2022-11-16T16:38:13.116Z,27.92
2022-11-16T16:41:23.749Z,29.40
2022-11-16T16:44:26.228Z,28.30
2022-11-16T16:47:28.753Z,25.98
2022-11-16T16:50:31.117Z,25.12
2022-11-16T16:53:33.795Z,25.67
2022-11-16T16:56:36.066Z,26.30
2022-11-16T16:59:38.428Z,22.42
2022-11-16T17:02:40.619Z,23.33
2022-11-16T17:05:43.202Z,24.30
2022-11-16T17:08:45.315Z,23.70
2022-11-16T17:11:48.110Z,23.33
2022-11-16T17:14:53.174Z,20.73
2022-11-16T17:17:57.771Z,22.17
2022-11-16T17:21:07.869Z,21.37
2022-11-16T17:24:10.477Z,22.13
2022-11-16T17:27:12.711Z,23.50
2022-11-16T17:30:15.423Z,21.58
2022-11-16T17:33:17.489Z,21.02
2022-11-16T17:36:20.428Z,19.15
2022-11-16T17:39:23.594Z,21.08
2022-11-16T17:42:25.938Z,18.90
2022-11-16T17:45:28.179Z,18.02
2022-11-16T17:48:30.598Z,23.23
2022-11-16T17:51:32.717Z,17.98
2022-11-16T17:54:35.061Z,18.60
2022-11-16T17:57:37.142Z,17.95
2022-11-16T18:00:39.474Z,19.33
2022-11-16T18:03:41.954Z,17.33
2022-11-16T18:06:44.028Z,17.02
2022-11-16T18:09:46.382Z,18.90
2022-11-16T18:12:48.574Z,19.70
2022-11-16T18:15:50.930Z,16.92
2022-11-16T18:19:00.748Z,18.75
2022-11-16T18:22:03.139Z,14.87
2022-11-16T18:25:05.620Z,15.13
2022-11-16T18:28:07.962Z,14.77
2022-11-16T18:31:12.862Z,17.65
2022-11-16T18:34:15.406Z,14.20
2022-11-16T18:37:17.460Z,16.05
2022-11-16T18:40:19.953Z,16.05
2022-11-16T18:43:22.309Z,15.27
2022-11-16T18:46:29.719Z,17.55
2022-11-16T18:49:31.784Z,15.60
2022-11-16T18:52:34.147Z,15.43
2022-11-16T18:55:36.202Z,17.55
2022-11-16T18:58:54.626Z,18.23
2022-11-16T19:01:56.735Z,20.35
2022-11-16T19:04:59.085Z,18.52
2022-11-16T19:08:01.167Z,18.08
2022-11-16T19:11:05.643Z,17.98
2022-11-16T19:14:07.949Z,18.58
2022-11-16T19:17:10.330Z,16.60
2022-11-16T19:20:12.787Z,15.82
2022-11-16T19:23:15.387Z,13.82
2022-11-16T19:26:18.905Z,14.48
2022-11-16T19:29:21.277Z,13.10
2022-11-16T19:32:23.391Z,13.50
2022-11-16T19:35:26.345Z,15.02
2022-11-16T19:38:29.277Z,14.15
2022-11-16T19:41:31.979Z,11.15
2022-11-16T19:44:34.054Z,10.77
2022-11-16T19:47:36.420Z,9.85
2022-11-16T19:50:38.531Z,11.12
2022-11-16T19:53:41.011Z,11.10
2022-11-16T19:56:43.606Z,9.63
2022-11-16T19:59:48.683Z,11.10
2022-11-16T20:02:57.101Z,10.50
2022-11-16T20:06:11.078Z,9.70
2022-11-16T20:09:13.227Z,11.73
2022-11-16T20:12:15.614Z,10.48
2022-11-16T20:15:18.130Z,13.48
2022-11-16T20:18:20.468Z,9.80
2022-11-16T20:21:32.914Z,11.27
2022-11-16T20:24:35.271Z,10.50
2022-11-16T20:27:37.423Z,10.80
2022-11-16T20:30:45.641Z,12.23
2022-11-16T20:33:52.578Z,12.07
2022-11-16T20:36:54.978Z,14.20
2022-11-16T20:39:57.323Z,13.55
2022-11-16T20:43:00.211Z,12.30
2022-11-16T20:46:02.316Z,15.23
2022-11-16T20:49:04.778Z,12.52
2022-11-16T20:52:06.859Z,13.32
2022-11-16T20:55:09.741Z,14.87
2022-11-16T20:58:12.184Z,13.70
2022-11-16T21:01:21.233Z,14.60
2022-11-16T21:04:23.411Z,14.40
2022-11-16T21:07:25.785Z,13.27
2022-11-16T21:10:28.744Z,13.18
2022-11-16T21:13:49.714Z,13.20
2022-11-16T21:16:51.830Z,15.38
2022-11-16T21:20:20.132Z,16.95
2022-11-16T21:23:16.549Z,16.73
2022-11-16T21:26:21.516Z,14.18
2022-11-16T21:29:25.912Z,17.42
2022-11-16T21:32:28.300Z,18.42
2022-11-16T21:35:30.467Z,17.70
2022-11-16T21:38:34.028Z,15.05
2022-11-16T21:41:36.138Z,15.80
2022-11-16T21:44:44.498Z,17.30
2022-11-16T21:47:46.599Z,19.33
2022-11-16T21:51:02.584Z,15.85
2022-11-16T21:54:04.884Z,14.93
2022-11-16T21:57:07.584Z,15.48
2022-11-16T22:00:10.570Z,14.15
2022-11-16T22:03:13.553Z,16.00
2022-11-16T22:06:35.119Z,16.35
2022-11-16T22:09:37.348Z,16.05
2022-11-16T22:12:39.801Z,19.92
2022-11-16T22:15:41.906Z,18.10
2022-11-16T22:18:44.561Z,20.12
2022-11-16T22:21:46.671Z,20.08
2022-11-16T22:24:49.084Z,23.40
2022-11-16T22:28:20.341Z,21.35
2022-11-16T22:31:14.923Z,18.87
2022-11-16T22:34:17.046Z,19.85
2022-11-16T22:37:19.382Z,17.40
2022-11-16T22:40:21.646Z,18.33
2022-11-16T22:43:27.054Z,20.00
2022-11-16T22:46:29.185Z,19.65
2022-11-16T22:49:31.680Z,18.60
2022-11-16T22:52:33.805Z,23.00
2022-11-16T22:55:38.068Z,22.75
2022-11-16T22:58:40.564Z,20.75
2022-11-16T23:01:43.206Z,24.67
2022-11-16T23:04:45.452Z,22.70
2022-11-16T23:07:47.809Z,22.87
2022-11-16T23:11:15.320Z,28.70
2022-11-16T23:14:36.363Z,29.63
2022-11-16T23:17:38.474Z,28.58
2022-11-16T23:20:59.652Z,28.87
2022-11-16T23:24:20.585Z,27.48
2022-11-16T23:27:30.148Z,26.67
2022-11-16T23:30:34.975Z,28.38
2022-11-16T23:33:47.764Z,26.75
2022-11-16T23:36:49.867Z,27.73
2022-11-16T23:39:52.282Z,26.80
2022-11-16T23:43:14.085Z,29.48
2022-11-16T23:46:16.435Z,25.90
2022-11-16T23:49:18.589Z,29.65
2022-11-16T23:52:20.932Z,26.70
2022-11-16T23:55:23.158Z,29.85
2022-11-16T23:58:25.518Z,27.48
